Acton, California
Current Conditions -  °F | °C
As of 1:53 AM on Sunday 26 Oct 2014 (Local Time) from KPMD Reporting Station
Clear Clear  
Wind Chill: 59°   Ceiling: Unl
Heat Index: 59°   Visibility: 10mi
Dew Point: 44°   Wind: 20mph
Humidity: 58%   Direction: 280°W
Pressure: 30.06"   Gusts: NA
Location:  34.47°N, 118.2°W
Report Text: KPMD 260853Z AUTO 28017KT 10SM CLR 15/07 A3006 RMK AO2 SLP158 T01500067 56006
Loading
Personal Weather Stations






























Interactive Weather Map
Tropical Storm Tracking
New forecast layout! Learn more

10-Day Weather Forecast

Advertisements
Track Severe Weather on mobile